Time;durP1;ratioP1;P1;durP2;ratioP2;P2;SDS_P1;SDS_P2;PMS_P1;PMS_P2;Temp;Humidity;BMP_temperature;BMP_pressure;BME280_temperature;BME280_humidity;BME280_pressure;Samples;Min_cycle;Max_cycle;Signal;HPM_P1;HPM_P2
2024/01/16 00:00:12;;;;;;;3.05;2.05;;;11.20;81.20;;;;;;5092079;28;20067;-44
2024/01/16 00:02:37;;;;;;;3.28;1.90;;;11.40;79.80;;;;;;5091947;28;20035;-44
2024/01/16 00:05:04;;;;;;;4.15;2.40;;;11.40;79.00;;;;;;5092009;28;20031;-43
2024/01/16 00:07:32;;;;;;;2.58;1.90;;;11.40;78.80;;;;;;5092074;28;20023;-44
2024/01/16 00:09:58;;;;;;;3.95;2.15;;;11.30;78.90;;;;;;5092143;28;20546;-41
2024/01/16 00:12:23;;;;;;;3.78;2.03;;;11.20;79.00;;;;;;5092277;28;20032;-44
2024/01/16 00:14:49;;;;;;;3.50;2.35;;;11.10;79.30;;;;;;5092198;28;20051;-44
2024/01/16 00:17:15;;;;;;;3.92;2.55;;;11.00;80.20;;;;;;5092128;28;20039;-44
2024/01/16 00:19:41;;;;;;;2.85;2.13;;;11.00;81.10;;;;;;5092069;28;20032;-44
2024/01/16 00:22:06;;;;;;;4.07;2.38;;;11.20;81.20;;;;;;5091789;28;20027;-44
2024/01/16 00:24:32;;;;;;;3.90;2.00;;;11.40;79.70;;;;;;5091606;28;20038;-42
2024/01/16 00:26:57;;;;;;;2.97;2.10;;;11.40;79.00;;;;;;5092965;28;20031;-41
2024/01/16 00:29:23;;;;;;;3.28;2.05;;;11.40;78.90;;;;;;5092774;28;20065;-44
2024/01/16 00:31:49;;;;;;;3.00;2.00;;;11.20;78.90;;;;;;5091682;28;20024;-45
2024/01/16 00:34:14;;;;;;;3.22;1.92;;;11.10;79.00;;;;;;5091569;28;20148;-45
2024/01/16 00:36:40;;;;;;;3.65;2.10;;;11.10;79.30;;;;;;5092731;28;20024;-44
2024/01/16 00:39:07;;;;;;;3.13;1.83;;;11.00;80.50;;;;;;5092621;28;20450;-44
2024/01/16 00:41:32;;;;;;;3.20;2.20;;;11.00;81.20;;;;;;5091485;28;20020;-45
2024/01/16 00:43:58;;;;;;;3.08;2.00;;;11.30;80.80;;;;;;5091937;28;20020;-43
2024/01/16 00:46:24;;;;;;;3.20;1.85;;;11.50;79.50;;;;;;5091646;28;20121;-44
2024/01/16 00:48:49;;;;;;;3.72;2.20;;;11.40;78.90;;;;;;5091730;28;20024;-45
2024/01/16 00:51:15;;;;;;;3.13;1.90;;;11.40;78.80;;;;;;5091450;28;20394;-44
2024/01/16 00:53:41;;;;;;;2.90;1.85;;;11.20;78.90;;;;;;5091473;28;20070;-44
2024/01/16 00:56:07;;;;;;;3.53;2.17;;;11.20;79.10;;;;;;5091351;28;20035;-44
2024/01/16 00:58:32;;;;;;;3.17;1.90;;;11.00;79.30;;;;;;5091299;28;20016;-44
2024/01/16 01:00:58;;;;;;;3.00;2.10;;;10.90;81.30;;;;;;5091299;28;20027;-44
2024/01/16 01:03:24;;;;;;;3.80;2.10;;;11.00;81.30;;;;;;5091147;28;20032;-45
2024/01/16 01:05:49;;;;;;;3.30;2.30;;;11.30;80.70;;;;;;5094958;28;20066;-44
2024/01/16 01:08:15;;;;;;;3.53;2.13;;;11.50;79.40;;;;;;5095288;28;20095;-45
2024/01/16 01:10:41;;;;;;;2.75;1.83;;;11.40;78.90;;;;;;5095403;28;20089;-44
2024/01/16 01:13:06;;;;;;;2.97;1.90;;;11.30;78.80;;;;;;5096763;28;20039;-45
2024/01/16 01:15:32;;;;;;;3.15;2.03;;;11.20;78.90;;;;;;5095233;28;20035;-44
2024/01/16 01:17:57;;;;;;;2.92;1.90;;;11.10;79.00;;;;;;5095252;28;20082;-44
2024/01/16 01:20:23;;;;;;;3.13;2.00;;;11.10;79.30;;;;;;5095213;28;20070;-42
2024/01/16 01:22:49;;;;;;;3.15;2.08;;;10.90;80.60;;;;;;5095111;28;20028;-44
2024/01/16 01:25:14;;;;;;;3.80;2.17;;;11.00;81.20;;;;;;5095172;28;20028;-44
2024/01/16 01:27:40;;;;;;;3.17;2.30;;;11.40;80.60;;;;;;5095307;28;20020;-43
2024/01/16 01:30:10;;;;;;;2.85;1.83;;;11.50;79.30;;;;;;5095034;28;20049;-45
2024/01/16 01:32:36;;;;;;;4.05;1.85;;;11.40;78.80;;;;;;5094807;28;20032;-44
2024/01/16 01:35:02;;;;;;;3.17;1.90;;;11.30;78.80;;;;;;5094962;28;20024;-44
2024/01/16 01:37:28;;;;;;;3.53;2.00;;;11.20;79.00;;;;;;5095148;28;20063;-44
2024/01/16 01:39:53;;;;;;;2.22;1.40;;;11.10;79.10;;;;;;5094796;28;20481;-44
2024/01/16 01:42:19;;;;;;;3.58;2.03;;;11.00;79.30;;;;;;5093379;28;20036;-44
2024/01/16 01:44:45;;;;;;;2.17;1.60;;;10.90;80.70;;;;;;5094669;28;20032;-44
2024/01/16 01:47:10;;;;;;;5.32;2.28;;;11.10;81.30;;;;;;5094669;28;20036;-44
2024/01/16 01:49:36;;;;;;;3.22;2.00;;;11.40;80.20;;;;;;5094990;28;20442;-44
2024/01/16 01:52:04;;;;;;;2.35;1.63;;;11.50;79.10;;;;;;5094683;28;20063;-44
2024/01/16 01:54:32;;;;;;;3.15;1.83;;;11.40;78.70;;;;;;5094562;28;20060;-45
2024/01/16 01:56:57;;;;;;;3.53;1.80;;;11.30;78.70;;;;;;5094562;28;20142;-44
2024/01/16 01:59:24;;;;;;;2.55;1.90;;;11.20;78.90;;;;;;5094480;28;20537;-44
2024/01/16 02:01:52;;;;;;;3.33;1.85;;;11.10;79.00;;;;;;5094350;28;20393;-45
2024/01/16 02:04:19;;;;;;;3.95;2.30;;;11.00;79.20;;;;;;5094327;28;20499;-44
2024/01/16 02:06:45;;;;;;;2.72;1.83;;;10.90;80.70;;;;;;5094355;28;20059;-45
2024/01/16 02:09:13;;;;;;;2.90;1.98;;;11.10;81.10;;;;;;5094214;28;20056;-45
2024/01/16 02:11:39;;;;;;;3.55;1.90;;;11.40;79.80;;;;;;5094380;28;20493;-44
2024/01/16 02:14:05;;;;;;;4.03;2.00;;;11.50;78.90;;;;;;5094074;28;20036;-44
2024/01/16 02:16:39;;;;;;;3.05;1.95;;;11.40;78.60;;;;;;5092638;28;20085;-44
2024/01/16 02:19:05;;;;;;;;;;;11.30;78.70;;;;;;5094567;28;20442;-44
2024/01/16 02:21:51;;;;;;;3.45;2.00;;;11.20;78.70;;;;;;5094007;28;20347;-44
2024/01/16 02:24:18;;;;;;;4.43;2.13;;;11.10;79.00;;;;;;5092573;28;20032;-45
2024/01/16 02:26:44;;;;;;;3.25;2.22;;;11.00;79.80;;;;;;5093911;28;20028;-44
2024/01/16 02:29:10;;;;;;;2.65;1.65;;;10.90;80.70;;;;;;5093891;28;20077;-44
2024/01/16 02:31:35;;;;;;;3.55;1.95;;;11.20;80.80;;;;;;5093864;28;20075;-44
2024/01/16 02:34:03;;;;;;;3.85;2.10;;;11.50;79.30;;;;;;5093808;28;20032;-45
2024/01/16 02:36:30;;;;;;;3.38;2.10;;;11.50;78.50;;;;;;5094131;28;20371;-44
2024/01/16 02:38:56;;;;;;;4.07;2.47;;;11.40;78.30;;;;;;5094544;28;20051;-43
2024/01/16 02:41:21;;;;;;;4.47;2.28;;;11.30;78.40;;;;;;5093480;28;20063;-44
2024/01/16 02:43:47;;;;;;;2.72;1.70;;;11.20;78.50;;;;;;5093632;28;20030;-44
2024/01/16 02:46:14;;;;;;;2.40;1.70;;;11.10;78.70;;;;;;5093547;28;20028;-44
2024/01/16 02:48:40;;;;;;;3.95;2.03;;;11.00;79.70;;;;;;5094892;28;20482;-45
2024/01/16 02:51:05;;;;;;;3.97;2.15;;;11.00;80.60;;;;;;5093542;28;20048;-44
2024/01/16 02:53:31;;;;;;;5.13;2.17;;;11.20;80.40;;;;;;5092411;28;20130;-43
2024/01/16 02:56:00;;;;;;;2.58;1.95;;;11.50;79.00;;;;;;5093433;28;20028;-44
2024/01/16 02:58:30;;;;;;;3.75;2.05;;;11.50;78.30;;;;;;5093341;28;20030;-44
2024/01/16 03:00:57;;;;;;;2.30;1.70;;;11.40;78.10;;;;;;5093258;28;20016;-45
2024/01/16 03:03:23;;;;;;;3.20;1.73;;;11.30;78.40;;;;;;5093177;28;20024;-44
2024/01/16 03:05:49;;;;;;;2.33;1.77;;;11.20;78.30;;;;;;5094030;28;20040;-44
2024/01/16 03:08:15;;;;;;;3.00;1.80;;;11.10;78.60;;;;;;5094121;28;20103;-43
2024/01/16 03:10:41;;;;;;;3.20;2.03;;;10.90;79.70;;;;;;5094858;28;20564;-43
2024/01/16 03:13:06;;;;;;;3.15;2.10;;;11.00;80.40;;;;;;5092960;28;20495;-44
2024/01/16 03:15:32;;;;;;;3.33;2.10;;;11.30;80.00;;;;;;5092914;28;20063;-44
2024/01/16 03:18:01;;;;;;;3.40;2.08;;;11.50;78.50;;;;;;5093108;28;20024;-44
2024/01/16 03:20:27;;;;;;;3.25;1.75;;;11.50;78.00;;;;;;5092901;28;20398;-44
2024/01/16 03:22:53;;;;;;;3.05;1.90;;;11.40;77.90;;;;;;5093345;28;20046;-45
2024/01/16 03:25:19;;;;;;;3.03;1.80;;;11.40;78.80;;;;;;5092905;28;20057;-44
2024/01/16 03:27:45;;;;;;;2.45;1.60;;;11.30;78.10;;;;;;5092679;28;20028;-42
2024/01/16 03:30:11;;;;;;;2.50;1.80;;;11.20;78.10;;;;;;5093908;28;20032;-44
2024/01/16 03:32:37;;;;;;;5.20;2.38;;;11.10;79.10;;;;;;5092840;28;20024;-43
2024/01/16 03:35:04;;;;;;;3.42;1.90;;;11.20;79.70;;;;;;5092903;28;20029;-45
2024/01/16 03:37:30;;;;;;;3.10;1.73;;;11.50;79.10;;;;;;5092908;28;20035;-45
2024/01/16 03:39:56;;;;;;;2.85;1.58;;;11.70;77.70;;;;;;5092504;28;20483;-43
2024/01/16 03:42:23;;;;;;;3.22;1.83;;;11.70;77.30;;;;;;5092270;28;20031;-44
2024/01/16 03:44:49;;;;;;;3.15;1.80;;;11.60;77.20;;;;;;5092673;28;20382;-45
2024/01/16 03:47:15;;;;;;;3.20;1.77;;;11.50;77.30;;;;;;5092386;28;20013;-44
2024/01/16 03:49:40;;;;;;;2.83;1.70;;;11.50;77.50;;;;;;5092853;28;20035;-44
2024/01/16 03:52:06;;;;;;;3.10;1.90;;;11.30;77.50;;;;;;5093288;28;20055;-44
2024/01/16 03:54:31;;;;;;;3.05;1.80;;;11.20;78.60;;;;;;5092662;28;20085;-45
2024/01/16 03:56:57;;;;;;;3.28;2.08;;;11.30;79.20;;;;;;5092162;28;20035;-44
2024/01/16 03:59:23;;;;;;;3.03;1.60;;;11.60;78.50;;;;;;5092112;28;20020;-44
2024/01/16 04:01:49;;;;;;;2.65;1.70;;;11.70;77.20;;;;;;5092130;28;20466;-45
2024/01/16 04:04:15;;;;;;;2.97;1.70;;;11.70;76.80;;;;;;5094488;28;20425;-41
2024/01/16 04:06:42;;;;;;;3.10;1.80;;;11.60;76.80;;;;;;5092028;28;20028;-45
2024/01/16 04:09:09;;;;;;;3.30;1.77;;;11.50;76.90;;;;;;5092041;28;20016;-44
2024/01/16 04:11:35;;;;;;;2.95;1.70;;;11.40;77.00;;;;;;5091869;28;20087;-44
2024/01/16 04:14:00;;;;;;;2.90;1.85;;;11.40;77.20;;;;;;5091903;28;20527;-45
2024/01/16 04:16:26;;;;;;;3.35;2.00;;;11.20;78.30;;;;;;5091561;28;20027;-44
2024/01/16 04:18:52;;;;;;;3.80;1.85;;;11.40;79.00;;;;;;5091992;28;20024;-44
2024/01/16 04:21:18;;;;;;;3.42;1.92;;;11.60;78.00;;;;;;5092254;28;20070;-44
2024/01/16 04:23:44;;;;;;;2.40;1.52;;;11.70;76.80;;;;;;5091585;28;20101;-44
2024/01/16 04:26:09;;;;;;;3.55;1.90;;;11.70;76.50;;;;;;5091597;28;20367;-42
2024/01/16 04:28:37;;;;;;;2.50;1.52;;;11.50;76.50;;;;;;5091616;28;20527;-42
2024/01/16 04:31:05;;;;;;;5.22;1.75;;;11.50;76.70;;;;;;5091688;28;20013;-45
2024/01/16 04:33:31;;;;;;;2.72;1.67;;;11.40;76.80;;;;;;5091841;28;20099;-45
2024/01/16 04:35:57;;;;;;;3.97;2.15;;;11.30;77.10;;;;;;5091924;28;20107;-45
2024/01/16 04:38:23;;;;;;;3.58;2.00;;;11.20;78.30;;;;;;5093595;28;20493;-44
2024/01/16 04:40:49;;;;;;;2.65;1.65;;;11.30;78.70;;;;;;5091102;28;20493;-44
2024/01/16 04:43:14;;;;;;;3.08;1.90;;;11.60;77.70;;;;;;5091468;28;20110;-44
2024/01/16 04:45:40;;;;;;;3.03;2.20;;;11.70;76.80;;;;;;5092940;28;20095;-43
2024/01/16 04:48:08;;;;;;;3.28;2.00;;;11.60;76.50;;;;;;5092885;28;20031;-42
2024/01/16 04:50:34;;;;;;;3.78;1.60;;;11.50;76.50;;;;;;5092053;28;20036;-45
2024/01/16 04:53:00;;;;;;;2.25;1.65;;;11.40;76.70;;;;;;5091380;28;20071;-44
2024/01/16 04:55:26;;;;;;;3.03;1.77;;;11.30;76.80;;;;;;5091253;28;20051;-45
2024/01/16 04:57:53;;;;;;;4.18;2.17;;;11.20;77.30;;;;;;5091253;28;20050;-45
2024/01/16 05:00:18;;;;;;;3.28;2.03;;;11.10;78.20;;;;;;5091366;28;20028;-45
2024/01/16 05:02:44;;;;;;;2.88;1.90;;;11.40;78.50;;;;;;5091274;28;20032;-44
2024/01/16 05:05:10;;;;;;;2.72;1.70;;;11.60;77.20;;;;;;5091460;28;20099;-45
2024/01/16 05:07:35;;;;;;;1.95;1.45;;;11.60;76.30;;;;;;5091262;28;20497;-45
2024/01/16 05:10:01;;;;;;;3.45;2.10;;;11.50;76.20;;;;;;5091064;28;20028;-45
2024/01/16 05:12:27;;;;;;;2.83;1.50;;;11.40;76.30;;;;;;5091259;28;20081;-44
2024/01/16 05:14:52;;;;;;;2.38;1.70;;;11.40;76.40;;;;;;5091301;28;20024;-45
2024/01/16 05:17:18;;;;;;;2.80;1.80;;;11.30;76.60;;;;;;5091198;28;20531;-45
2024/01/16 05:19:44;;;;;;;4.00;2.13;;;11.10;77.30;;;;;;5091200;28;20039;-44
2024/01/16 05:22:10;;;;;;;2.53;1.63;;;11.10;78.10;;;;;;5091096;28;20478;-45
2024/01/16 05:24:36;;;;;;;4.57;2.70;;;11.40;78.00;;;;;;5091284;28;20028;-45
2024/01/16 05:27:04;;;;;;;4.88;2.55;;;11.60;76.50;;;;;;5091014;28;20024;-45
2024/01/16 05:29:30;;;;;;;3.03;1.90;;;11.50;75.90;;;;;;5091034;28;20024;-45
2024/01/16 05:31:56;;;;;;;4.07;2.20;;;11.50;75.70;;;;;;5091626;28;20126;-45
2024/01/16 05:34:22;;;;;;;3.03;1.95;;;11.40;75.90;;;;;;5090982;28;20124;-45
2024/01/16 05:36:49;;;;;;;2.45;1.70;;;11.30;76.00;;;;;;5090957;28;20097;-45
2024/01/16 05:39:14;;;;;;;4.85;2.30;;;11.20;76.20;;;;;;5090929;28;20024;-44
2024/01/16 05:41:40;;;;;;;4.00;2.45;;;11.10;77.20;;;;;;5090908;28;20107;-43
2024/01/16 05:44:06;;;;;;;3.08;2.17;;;11.10;77.70;;;;;;5090886;28;20090;-45
2024/01/16 05:46:32;;;;;;;3.47;2.38;;;11.40;77.50;;;;;;5090914;28;20104;-42
2024/01/16 05:48:58;;;;;;;3.50;2.40;;;11.60;76.20;;;;;;5090836;28;20054;-45
2024/01/16 05:51:25;;;;;;;3.13;2.00;;;11.50;75.60;;;;;;5093533;28;20525;-45
2024/01/16 05:53:51;;;;;;;4.82;2.00;;;11.40;75.50;;;;;;5094486;28;20020;-44
2024/01/16 05:56:16;;;;;;;3.42;2.17;;;11.30;75.80;;;;;;5094553;28;20099;-44
2024/01/16 05:58:42;;;;;;;3.50;1.88;;;11.20;75.80;;;;;;5094452;28;20028;-45
2024/01/16 06:01:07;;;;;;;3.28;1.95;;;11.10;75.90;;;;;;5094569;28;20024;-46
2024/01/16 06:03:33;;;;;;;4.05;2.70;;;11.00;77.10;;;;;;5094500;28;20071;-42
2024/01/16 06:05:59;;;;;;;4.18;2.10;;;11.10;77.70;;;;;;5095015;28;20024;-44
2024/01/16 06:08:25;;;;;;;3.80;2.30;;;11.40;77.10;;;;;;5094468;28;20470;-44
2024/01/16 06:10:51;;;;;;;4.95;2.60;;;11.50;75.80;;;;;;5094286;28;20017;-43
2024/01/16 06:13:18;;;;;;;5.88;2.15;;;11.50;75.30;;;;;;5095161;28;20040;-44
2024/01/16 06:15:44;;;;;;;4.65;2.40;;;11.40;75.20;;;;;;5094351;28;20077;-44
2024/01/16 06:18:10;;;;;;;3.42;2.15;;;11.30;75.40;;;;;;5094122;28;20111;-44
2024/01/16 06:20:35;;;;;;;4.80;2.70;;;11.20;75.50;;;;;;5094112;28;20507;-44
2024/01/16 06:23:01;;;;;;;2.85;2.20;;;11.10;76.50;;;;;;5093766;28;20109;-44
2024/01/16 06:25:26;;;;;;;3.17;2.15;;;11.00;76.80;;;;;;5093966;28;20090;-44
2024/01/16 06:27:52;;;;;;;3.80;2.00;;;11.10;77.30;;;;;;5094224;28;20363;-44
2024/01/16 06:30:18;;;;;;;3.83;2.40;;;11.40;76.50;;;;;;5093874;28;20028;-45
2024/01/16 06:32:43;;;;;;;5.53;2.03;;;11.50;75.40;;;;;;5093844;28;20024;-44
2024/01/16 06:35:09;;;;;;;3.78;2.50;;;11.40;75.10;;;;;;5093809;28;20054;-44
2024/01/16 06:37:36;;;;;;;3.10;2.25;;;11.30;75.10;;;;;;5093628;28;20031;-44
2024/01/16 06:40:02;;;;;;;4.15;2.47;;;11.20;75.20;;;;;;5093648;28;20024;-44
2024/01/16 06:42:28;;;;;;;4.45;2.35;;;11.10;75.40;;;;;;5093587;28;20016;-44
2024/01/16 06:44:53;;;;;;;4.75;2.50;;;11.00;75.70;;;;;;5095036;28;20035;-43
2024/01/16 06:47:19;;;;;;;3.08;2.10;;;11.00;77.20;;;;;;5094429;28;20055;-43
2024/01/16 06:49:45;;;;;;;4.80;2.53;;;11.10;77.50;;;;;;5093584;28;20065;-43
2024/01/16 06:52:10;;;;;;;3.67;2.20;;;11.40;76.40;;;;;;5093363;28;20493;-44
2024/01/16 06:54:36;;;;;;;4.65;2.40;;;11.50;75.50;;;;;;5093087;28;20504;-44
2024/01/16 06:57:02;;;;;;;3.97;2.50;;;11.40;75.30;;;;;;5093404;28;20024;-43
2024/01/16 06:59:27;;;;;;;3.58;2.40;;;11.30;75.40;;;;;;5093300;28;20035;-43
2024/01/16 07:01:54;;;;;;;3.38;2.20;;;11.20;75.50;;;;;;5092470;28;20466;-44
2024/01/16 07:04:20;;;;;;;3.30;2.13;;;11.10;75.70;;;;;;5093193;28;20095;-43
2024/01/16 07:06:46;;;;;;;4.15;2.50;;;11.00;76.60;;;;;;5093197;28;20493;-44
2024/01/16 07:09:12;;;;;;;4.47;2.50;;;10.90;77.50;;;;;;5092953;28;20024;-43
2024/01/16 07:11:38;;;;;;;3.88;2.40;;;11.20;77.70;;;;;;5093160;28;20030;-44
2024/01/16 07:14:06;;;;;;;3.80;2.33;;;11.40;76.30;;;;;;5093006;28;20371;-44
2024/01/16 07:16:32;;;;;;;7.30;3.80;;;11.50;75.60;;;;;;5092943;28;20470;-44
2024/01/16 07:18:58;;;;;;;6.13;3.30;;;11.40;75.40;;;;;;5093001;28;20024;-44
2024/01/16 07:21:24;;;;;;;5.80;2.97;;;11.20;75.30;;;;;;5092997;28;20490;-44
2024/01/16 07:23:50;;;;;;;5.93;3.33;;;11.20;75.50;;;;;;5092636;28;20032;-44
2024/01/16 07:26:16;;;;;;;6.78;3.92;;;11.10;75.70;;;;;;5093339;28;20052;-43
2024/01/16 07:28:42;;;;;;;6.53;3.95;;;10.90;76.70;;;;;;5092667;28;20112;-44
2024/01/16 07:31:09;;;;;;;5.32;3.58;;;11.00;77.30;;;;;;5092736;28;20099;-45
2024/01/16 07:33:35;;;;;;;5.95;3.42;;;11.20;76.90;;;;;;5092630;28;20020;-45
2024/01/16 07:36:01;;;;;;;5.53;3.83;;;11.40;75.50;;;;;;5093436;28;20024;-43
2024/01/16 07:38:27;;;;;;;5.47;3.72;;;11.40;75.10;;;;;;5092321;28;20095;-44
2024/01/16 07:40:53;;;;;;;5.25;3.40;;;11.30;75.10;;;;;;5093563;28;20095;-43
2024/01/16 07:43:18;;;;;;;5.88;3.47;;;11.20;75.10;;;;;;5093502;28;20077;-45
2024/01/16 07:45:44;;;;;;;5.57;3.25;;;11.10;75.30;;;;;;5108547;28;20401;-43
2024/01/16 07:48:10;;;;;;;6.15;3.67;;;11.00;75.50;;;;;;5092254;28;20020;-43
2024/01/16 07:50:36;;;;;;;5.45;3.65;;;10.90;76.90;;;;;;5092410;28;20535;-44
2024/01/16 07:53:02;;;;;;;8.13;4.20;;;11.00;77.40;;;;;;5092074;28;20031;-44
2024/01/16 07:55:27;;;;;;;20.80;9.05;;;11.30;76.70;;;;;;5092445;28;20130;-44
2024/01/16 07:57:54;;;;;;;25.48;11.95;;;11.40;73.70;;;;;;5092105;28;20055;-40
2024/01/16 08:00:19;;;;;;;22.13;10.73;;;11.40;67.50;;;;;;5092500;28;20032;-44
2024/01/16 08:02:45;;;;;;;22.98;10.98;;;11.20;68.10;;;;;;5092568;28;20035;-42
2024/01/16 08:05:11;;;;;;;21.65;10.93;;;11.10;69.30;;;;;;5091955;28;20020;-43
2024/01/16 08:07:36;;;;;;;20.88;11.27;;;10.90;70.20;;;;;;5092093;28;20103;-43
2024/01/16 08:10:02;;;;;;;21.35;11.05;;;10.80;71.90;;;;;;5092193;28;20066;-43
2024/01/16 08:12:28;;;;;;;22.95;11.18;;;10.80;73.10;;;;;;5091954;28;20024;-43
2024/01/16 08:14:53;;;;;;;22.50;11.43;;;11.20;73.20;;;;;;5091927;28;20055;-41
2024/01/16 08:17:19;;;;;;;20.10;10.32;;;11.30;72.00;;;;;;5092205;28;20032;-40
2024/01/16 08:19:44;;;;;;;19.85;10.23;;;11.30;71.90;;;;;;5091675;28;20054;-44
2024/01/16 08:22:10;;;;;;;19.33;10.15;;;11.20;71.90;;;;;;5091901;28;20075;-43
2024/01/16 08:24:36;;;;;;;16.20;9.63;;;11.10;72.20;;;;;;5091634;28;20040;-43
2024/01/16 08:27:02;;;;;;;14.82;8.93;;;11.00;72.50;;;;;;5091801;28;20032;-43
2024/01/16 08:29:28;;;;;;;20.40;10.35;;;10.90;72.80;;;;;;5091683;28;20024;-44
2024/01/16 08:31:54;;;;;;;20.77;11.18;;;10.80;74.40;;;;;;5091702;28;20028;-42
2024/01/16 08:34:19;;;;;;;18.75;9.63;;;11.00;75.00;;;;;;5091465;28;20028;-43
2024/01/16 08:36:46;;;;;;;18.90;9.57;;;11.40;74.10;;;;;;5091580;28;20059;-44
2024/01/16 08:39:11;;;;;;;18.63;9.52;;;11.40;73.10;;;;;;5091489;28;20028;-44
2024/01/16 08:41:37;;;;;;;18.38;9.45;;;11.40;72.90;;;;;;5091562;28;20034;-43
2024/01/16 08:44:04;;;;;;;15.63;9.02;;;11.30;73.00;;;;;;5091572;28;20508;-43
2024/01/16 08:46:29;;;;;;;14.25;8.07;;;11.30;73.20;;;;;;5091408;28;20154;-44
2024/01/16 08:48:55;;;;;;;17.17;8.55;;;11.20;73.40;;;;;;5091253;28;20107;-44
2024/01/16 08:51:21;;;;;;;17.17;8.90;;;11.10;73.90;;;;;;5091656;28;20016;-43
2024/01/16 08:53:46;;;;;;;14.65;8.45;;;11.10;75.00;;;;;;5091222;28;20371;-43
2024/01/16 08:56:12;;;;;;;15.07;8.38;;;11.30;75.20;;;;;;5091348;28;20027;-44
2024/01/16 08:58:40;;;;;;;16.88;8.60;;;11.60;73.90;;;;;;5091224;28;20103;-44
2024/01/16 09:01:05;;;;;;;11.98;7.60;;;11.60;73.20;;;;;;5091324;28;20069;-44
2024/01/16 09:03:32;;;;;;;15.55;8.32;;;11.60;73.10;;;;;;5091302;28;20028;-43
2024/01/16 09:05:58;;;;;;;12.00;6.90;;;11.50;73.20;;;;;;5091273;28;20309;-44
2024/01/16 09:08:26;;;;;;;12.95;7.22;;;11.50;73.30;;;;;;5091130;28;20032;-42
2024/01/16 09:10:56;;;;;;;15.15;7.85;;;11.50;73.50;;;;;;5091283;28;20031;-40
2024/01/16 09:13:23;;;;;;;13.70;7.63;;;11.50;74.00;;;;;;5091017;28;20448;-43
2024/01/16 09:15:49;;;;;;;11.65;6.97;;;11.40;75.00;;;;;;5091177;28;20118;-44
2024/01/16 09:18:15;;;;;;;15.20;8.40;;;11.70;75.20;;;;;;5091451;28;20047;-43
2024/01/16 09:20:42;;;;;;;14.45;7.93;;;11.90;73.90;;;;;;5091271;28;20055;-43
2024/01/16 09:23:08;;;;;;;11.57;7.05;;;12.00;73.20;;;;;;5091223;28;20024;-43
2024/01/16 09:25:34;;;;;;;13.40;7.53;;;11.90;73.10;;;;;;5092383;28;20401;-43
2024/01/16 09:28:00;;;;;;;14.10;7.72;;;11.90;73.20;;;;;;5094909;28;20031;-43
2024/01/16 09:30:26;;;;;;;12.48;6.80;;;11.90;73.20;;;;;;5095148;28;20500;-44
2024/01/16 09:32:52;;;;;;;11.55;6.60;;;11.80;73.30;;;;;;5095031;28;20024;-43
2024/01/16 09:35:17;;;;;;;13.48;7.57;;;11.80;73.80;;;;;;5095059;28;20149;-43
2024/01/16 09:37:43;;;;;;;11.95;7.53;;;11.70;74.60;;;;;;5094898;28;20474;-44
2024/01/16 09:40:10;;;;;;;12.05;6.95;;;12.00;74.90;;;;;;5095176;28;20024;-43
2024/01/16 09:42:36;;;;;;;12.40;7.13;;;12.20;73.60;;;;;;5094640;28;20032;-41
2024/01/16 09:45:04;;;;;;;12.23;6.13;;;12.20;73.80;;;;;;5094792;28;20024;-43
2024/01/16 09:47:31;;;;;;;12.98;7.10;;;12.20;72.90;;;;;;5095158;28;20031;-44
2024/01/16 09:49:59;;;;;;;11.13;6.70;;;12.20;73.00;;;;;;5094910;28;20095;-43
2024/01/16 09:52:26;;;;;;;11.43;6.47;;;12.20;73.00;;;;;;5094600;28;20036;-43
2024/01/16 09:54:51;;;;;;;9.23;6.10;;;12.10;73.10;;;;;;5095317;28;20066;-43
2024/01/16 09:57:21;;;;;;;12.25;7.22;;;12.10;73.30;;;;;;5094565;28;20676;-43
2024/01/16 09:59:48;;;;;;;12.48;7.07;;;12.00;75.20;;;;;;5094582;28;20036;-44
2024/01/16 10:02:14;;;;;;;11.38;6.78;;;12.20;74.70;;;;;;5094213;28;20024;-42
2024/01/16 10:04:43;;;;;;;11.73;6.80;;;12.50;73.50;;;;;;5094427;28;20100;-43
2024/01/16 10:07:12;;;;;;;11.60;6.53;;;12.60;72.90;;;;;;5094368;28;20046;-40
2024/01/16 10:09:38;;;;;;;11.15;6.57;;;12.50;72.80;;;;;;5094214;28;20032;-44
2024/01/16 10:12:05;;;;;;;9.23;5.97;;;12.50;72.90;;;;;;5094891;28;20038;-41
2024/01/16 10:14:31;;;;;;;10.65;5.50;;;12.50;72.90;;;;;;5094637;28;20086;-41
2024/01/16 10:17:17;;;;;;;9.07;5.47;;;12.50;73.00;;;;;;5094598;28;20097;-42
2024/01/16 10:19:54;;;;;;;12.25;6.70;;;12.50;73.00;;;;;;5094045;28;20439;-42
2024/01/16 10:22:24;;;;;;;11.43;6.45;;;12.40;73.90;;;;;;5094364;28;20445;-44
2024/01/16 10:25:16;;;;;;;12.02;6.28;;;12.50;74.40;;;;;;5093965;28;20425;-43
2024/01/16 10:27:42;;;;;;;11.15;5.65;;;12.80;73.60;;;;;;5095848;28;20030;-40
2024/01/16 10:30:10;;;;;;;10.63;5.90;;;12.80;72.70;;;;;;5094275;28;20698;-43
2024/01/16 10:32:40;;;;;;;10.77;5.30;;;12.80;72.70;;;;;;5094198;28;20020;-44
2024/01/16 10:35:08;;;;;;;9.02;5.95;;;12.80;72.70;;;;;;5094624;28;20429;-44
2024/01/16 10:37:44;;;;;;;9.18;5.53;;;12.90;72.70;;;;;;5093113;28;20097;-44
2024/01/16 10:40:10;;;;;;;8.73;4.90;;;12.90;72.80;;;;;;5093711;28;20133;-43
2024/01/16 10:42:37;;;;;;;8.70;5.20;;;12.90;72.80;;;;;;5093686;28;20022;-44
2024/01/16 10:45:03;;;;;;;9.32;5.32;;;12.90;72.90;;;;;;5095359;28;20456;-44
2024/01/16 10:47:29;;;;;;;8.85;5.78;;;12.90;73.60;;;;;;5093948;28;20394;-44
2024/01/16 10:49:55;;;;;;;9.68;5.32;;;13.00;74.00;;;;;;5095224;28;20099;-43
2024/01/16 10:52:26;;;;;;;7.63;5.18;;;13.20;73.00;;;;;;5093856;28;20035;-43
2024/01/16 10:54:56;;;;;;;7.90;4.78;;;13.30;72.40;;;;;;5094352;28;20102;-42
2024/01/16 10:57:22;;;;;;;7.68;4.65;;;13.30;72.30;;;;;;5093303;28;20069;-44
2024/01/16 11:00:08;;;;;;;8.65;5.10;;;13.40;72.30;;;;;;5093287;28;20569;-44
2024/01/16 11:02:49;;;;;;;7.53;4.22;;;13.40;72.20;;;;;;5093192;28;20111;-42
2024/01/16 11:05:17;;;;;;;7.78;4.43;;;13.50;72.20;;;;;;5093677;28;20051;-44
2024/01/16 11:07:43;;;;;;;6.65;4.18;;;13.50;72.10;;;;;;5093189;28;20024;-44
2024/01/16 11:10:10;;;;;;;7.68;4.18;;;13.50;72.10;;;;;;5093444;28;20081;-44
2024/01/16 11:12:39;;;;;;;6.78;4.22;;;13.50;72.00;;;;;;5093126;28;20146;-44
2024/01/16 11:15:07;;;;;;;6.47;4.18;;;13.50;72.90;;;;;;5093028;28;20069;-44
2024/01/16 11:17:34;;;;;;;8.95;4.47;;;13.60;73.00;;;;;;5092823;28;20118;-44
2024/01/16 11:20:05;;;;;;;7.70;4.38;;;13.80;72.00;;;;;;5093048;28;20024;-44
2024/01/16 11:22:32;;;;;;;6.22;3.90;;;13.90;71.70;;;;;;5091577;28;20035;-43
2024/01/16 11:25:13;;;;;;;7.25;3.92;;;13.90;71.70;;;;;;5092836;28;20021;-44
2024/01/16 11:27:40;;;;;;;7.50;3.85;;;14.00;72.50;;;;;;5091419;28;20068;-43
2024/01/16 11:30:13;;;;;;;6.53;3.50;;;14.00;71.60;;;;;;5093044;28;20067;-44
2024/01/16 11:32:40;;;;;;;14.45;6.85;;;14.10;71.60;;;;;;5092951;28;20041;-41
2024/01/16 11:35:07;;;;;;;76.93;34.08;;;14.20;69.30;;;;;;5089281;28;20037;-43
2024/01/16 11:37:36;;;;;;;13.23;5.03;;;14.10;67.60;;;;;;5083272;28;20067;-43
2024/01/16 11:40:21;;;;;;;37.63;18.02;;;14.00;67.00;;;;;;5086183;28;20161;-44
2024/01/16 11:42:46;;;;;;;;;;;14.20;66.40;;;;;;5078654;28;20542;-43
2024/01/16 11:45:48;;;;;;;12.30;5.15;;;14.20;65.30;;;;;;5079920;28;19967;-41
2024/01/16 11:48:18;;;;;;;7.90;4.47;;;14.10;67.50;;;;;;5086084;28;20039;-43
2024/01/16 11:50:44;;;;;;;10.02;4.75;;;14.10;69.90;;;;;;5092579;28;20527;-43
2024/01/16 11:53:10;;;;;;;8.70;4.35;;;14.20;70.00;;;;;;5092261;28;20062;-43
2024/01/16 11:56:08;;;;;;;9.90;4.93;;;14.20;70.60;;;;;;5092330;28;20020;-43
2024/01/16 11:58:42;;;;;;;6.47;3.78;;;14.30;71.20;;;;;;5090827;28;20596;-41
2024/01/16 12:01:08;;;;;;;7.97;4.47;;;14.30;69.60;;;;;;5092621;28;20031;-43
2024/01/16 12:03:34;;;;;;;9.15;4.50;;;14.20;71.10;;;;;;5092001;28;20493;-43
2024/01/16 12:06:00;;;;;;;6.30;3.95;;;14.30;72.20;;;;;;5092125;28;20040;-43
2024/01/16 12:08:26;;;;;;;6.85;3.70;;;14.50;71.60;;;;;;5093420;28;20492;-41
2024/01/16 12:10:52;;;;;;;6.15;3.63;;;14.50;71.60;;;;;;5092229;28;20038;-44
2024/01/16 12:13:18;;;;;;;5.05;3.40;;;14.60;71.90;;;;;;5092017;28;20024;-44
2024/01/16 12:15:44;;;;;;;6.50;3.45;;;14.60;72.10;;;;;;5091852;28;20055;-43
2024/01/16 12:18:10;;;;;;;6.75;3.20;;;14.60;72.10;;;;;;5091718;28;20036;-43
2024/01/16 12:20:36;;;;;;;4.63;2.95;;;14.70;72.40;;;;;;5091954;28;20024;-43
2024/01/16 12:23:07;;;;;;;5.35;3.13;;;14.80;72.50;;;;;;5092055;28;20124;-43
2024/01/16 12:25:34;;;;;;;6.18;3.47;;;14.80;72.60;;;;;;5091810;28;20044;-43
2024/01/16 12:28:02;;;;;;;6.75;3.20;;;14.70;74.20;;;;;;5091661;28;20440;-43
2024/01/16 12:30:30;;;;;;;6.78;3.42;;;14.80;74.00;;;;;;5091624;28;20028;-43
2024/01/16 12:33:06;;;;;;;7.70;3.25;;;15.00;73.30;;;;;;5091658;28;20032;-43
2024/01/16 12:36:01;;;;;;;4.38;2.55;;;15.00;72.70;;;;;;5091732;28;20073;-43
2024/01/16 12:38:27;;;;;;;4.35;2.63;;;15.10;72.80;;;;;;5092181;28;20430;-43
2024/01/16 12:40:52;;;;;;;4.43;2.53;;;15.10;72.70;;;;;;5091754;28;20085;-43
2024/01/16 12:43:18;;;;;;;4.95;2.35;;;15.20;72.80;;;;;;5091559;28;20038;-43